Aviation Digital Data Service (ADDS)

Output produced by METARs form (0014 UTC 02 February 2015)
found at http://aviationweather.gov/adds/metars/
 
KLCH 012320Z 0200/0224 22009KT P6SM SCT025 BKN060 
     TEMPO 0200/0203 4SM TSRA BKN015CB 
     FM020400 35015G20KT P6SM BKN040 BKN200 
     FM020700 35012G18KT P6SM SKC